createdAt,value
2022-09-23T00:01:10.686Z,9.35
2022-09-23T00:03:14.200Z,9.30
2022-09-23T00:05:17.022Z,9.25
2022-09-23T00:07:19.563Z,9.24
2022-09-23T00:09:22.083Z,9.23
2022-09-23T00:11:26.982Z,9.26
2022-09-23T00:13:29.511Z,9.27
2022-09-23T00:15:33.712Z,9.24
2022-09-23T00:17:38.208Z,9.25
2022-09-23T00:19:41.055Z,9.15
2022-09-23T00:21:43.619Z,9.14
2022-09-23T00:23:46.351Z,9.13
2022-09-23T00:25:57.181Z,9.13
2022-09-23T00:27:59.905Z,9.16
2022-09-23T00:30:02.675Z,9.13
2022-09-23T00:32:06.096Z,9.10
2022-09-23T00:34:12.098Z,9.07
2022-09-23T00:36:16.554Z,9.04
2022-09-23T00:38:19.209Z,8.97
2022-09-23T00:40:21.918Z,8.94
2022-09-23T00:42:25.307Z,8.94
2022-09-23T00:44:47.662Z,8.93
2022-09-23T00:46:50.319Z,8.92
2022-09-23T00:48:58.570Z,8.89
2022-09-23T00:51:02.946Z,8.88
2022-09-23T00:53:09.641Z,8.85
2022-09-23T00:55:17.458Z,8.84
2022-09-23T00:57:20.870Z,8.84
2022-09-23T00:59:26.087Z,8.78
2022-09-23T01:01:28.874Z,8.78
2022-09-23T01:03:31.866Z,8.78
2022-09-23T01:05:36.376Z,8.82
2022-09-23T01:07:40.287Z,8.82
2022-09-23T01:09:42.877Z,8.86
2022-09-23T01:12:01.291Z,8.84
2022-09-23T01:14:19.003Z,8.80
2022-09-23T01:16:29.990Z,8.81
2022-09-23T01:18:39.085Z,8.76
2022-09-23T01:20:56.040Z,8.77
2022-09-23T01:23:17.501Z,8.76
2022-09-23T01:25:34.669Z,8.75
2022-09-23T01:27:51.340Z,8.74
2022-09-23T01:30:34.568Z,8.69
2022-09-23T01:32:45.652Z,8.68
2022-09-23T01:34:52.261Z,8.68
2022-09-23T01:37:02.455Z,8.65
2022-09-23T01:39:11.982Z,8.64
2022-09-23T01:41:27.527Z,8.61
2022-09-23T01:43:39.413Z,8.58
2022-09-23T01:45:47.391Z,8.48
2022-09-23T01:47:55.794Z,8.47
2022-09-23T01:50:02.872Z,8.46
2022-09-23T01:52:11.057Z,8.46
2022-09-23T01:54:17.733Z,8.42
2022-09-23T01:56:23.626Z,8.37
2022-09-23T01:58:30.337Z,8.37
2022-09-23T02:00:37.508Z,8.41
2022-09-23T02:02:49.916Z,8.42
2022-09-23T02:04:56.926Z,8.40
2022-09-23T02:07:03.727Z,8.34
2022-09-23T02:09:10.322Z,8.33
2022-09-23T02:11:15.844Z,8.31
2022-09-23T02:13:24.153Z,8.30
2022-09-23T02:15:33.661Z,8.29
2022-09-23T02:17:42.514Z,8.32
2022-09-23T02:19:49.856Z,8.27
2022-09-23T02:21:57.584Z,8.23
2022-09-23T02:24:09.095Z,8.23
2022-09-23T02:26:20.054Z,8.18
2022-09-23T02:28:30.874Z,8.19
2022-09-23T02:30:43.333Z,8.21
2022-09-23T02:32:53.672Z,8.20
2022-09-23T02:35:06.723Z,8.18
2022-09-23T02:37:17.616Z,8.18
2022-09-23T02:39:23.920Z,8.20
2022-09-23T02:41:32.272Z,8.22
2022-09-23T02:43:41.787Z,8.20
2022-09-23T02:45:44.854Z,8.17
2022-09-23T02:47:52.443Z,8.18
2022-09-23T02:49:56.358Z,8.21
2022-09-23T02:52:05.537Z,8.18
2022-09-23T02:54:11.396Z,8.15
2022-09-23T02:56:16.117Z,8.13
2022-09-23T02:58:18.988Z,8.12
2022-09-23T03:00:21.664Z,8.11
2022-09-23T03:02:39.916Z,8.07
2022-09-23T03:04:51.160Z,8.07
2022-09-23T03:07:02.846Z,8.05
2022-09-23T03:09:08.874Z,8.02
2022-09-23T03:11:13.547Z,7.98
2022-09-23T03:13:27.345Z,8.01
2022-09-23T03:15:37.384Z,7.92
2022-09-23T03:17:50.735Z,7.90
2022-09-23T03:20:00.123Z,7.87
2022-09-23T03:22:09.311Z,7.90
2022-09-23T03:24:14.819Z,7.86
2022-09-23T03:26:21.940Z,7.88
2022-09-23T03:28:26.988Z,7.87
2022-09-23T03:30:31.744Z,7.83
2022-09-23T03:32:35.905Z,7.82
2022-09-23T03:34:42.454Z,7.82
2022-09-23T03:36:53.806Z,7.80
2022-09-23T03:39:03.869Z,7.74
2022-09-23T03:41:10.637Z,7.72
2022-09-23T03:43:13.856Z,7.69
2022-09-23T03:45:20.879Z,7.72
2022-09-23T03:47:24.736Z,7.67
2022-09-23T03:49:32.955Z,7.69
2022-09-23T03:51:35.511Z,7.67
2022-09-23T03:53:39.586Z,7.67
2022-09-23T03:55:45.547Z,7.71
2022-09-23T03:57:48.563Z,7.67
2022-09-23T03:59:51.773Z,7.67
2022-09-23T04:01:55.553Z,7.67
2022-09-23T04:03:58.157Z,7.64
2022-09-23T04:06:00.840Z,7.66
2022-09-23T04:08:03.387Z,7.61
2022-09-23T04:10:07.176Z,7.60
2022-09-23T04:12:16.731Z,7.55
2022-09-23T04:14:20.349Z,7.55
2022-09-23T04:16:25.278Z,7.50
2022-09-23T04:18:27.972Z,7.50
2022-09-23T04:20:30.578Z,7.45
2022-09-23T04:22:33.944Z,7.51
2022-09-23T04:24:36.520Z,7.50
2022-09-23T04:26:40.179Z,7.47
2022-09-23T04:28:44.056Z,7.45
2022-09-23T04:30:47.251Z,7.42
2022-09-23T04:32:50.135Z,7.46
2022-09-23T04:34:52.636Z,7.41
2022-09-23T04:36:55.175Z,7.42
2022-09-23T04:38:58.806Z,7.44
2022-09-23T04:41:01.502Z,7.40
2022-09-23T04:43:04.265Z,7.39
2022-09-23T04:45:09.295Z,7.38
2022-09-23T04:47:11.836Z,7.39
2022-09-23T04:49:14.888Z,7.31
2022-09-23T04:51:19.185Z,7.31
2022-09-23T04:53:22.466Z,7.22
2022-09-23T04:55:25.032Z,7.19
2022-09-23T04:57:28.097Z,7.20
2022-09-23T04:59:30.887Z,7.16
2022-09-23T05:01:36.250Z,7.18
2022-09-23T05:03:39.873Z,7.12
2022-09-23T05:05:42.405Z,7.09
2022-09-23T05:07:45.114Z,7.08
2022-09-23T05:09:47.947Z,7.04
2022-09-23T05:11:51.923Z,7.02
2022-09-23T05:13:55.330Z,7.01
2022-09-23T05:16:00.620Z,6.98
2022-09-23T05:18:05.038Z,7.01
2022-09-23T05:20:08.587Z,7.03
2022-09-23T05:22:11.141Z,7.05
2022-09-23T05:24:14.136Z,7.03
2022-09-23T05:26:16.733Z,7.00
2022-09-23T05:28:20.083Z,7.02
2022-09-23T05:30:22.712Z,7.10
2022-09-23T05:32:26.257Z,7.07
2022-09-23T05:34:30.141Z,7.07
2022-09-23T05:36:38.162Z,7.01
2022-09-23T05:38:42.395Z,7.02
2022-09-23T05:40:45.024Z,7.04
2022-09-23T05:42:47.574Z,7.12
2022-09-23T05:44:50.071Z,7.14
2022-09-23T05:46:52.777Z,7.10
2022-09-23T05:49:01.186Z,7.13
2022-09-23T05:51:09.044Z,7.12
2022-09-23T05:53:11.614Z,7.14
2022-09-23T05:55:14.766Z,7.19
2022-09-23T05:57:17.371Z,7.26
2022-09-23T05:59:20.152Z,7.32
2022-09-23T06:01:25.933Z,7.31
2022-09-23T06:03:28.557Z,7.37
2022-09-23T06:05:31.375Z,7.41
2022-09-23T06:07:35.243Z,7.43
2022-09-23T06:09:38.004Z,7.57
2022-09-23T06:11:41.552Z,7.55
2022-09-23T06:13:44.275Z,7.53
2022-09-23T06:15:46.895Z,7.54
2022-09-23T06:17:50.898Z,7.60
2022-09-23T06:19:53.446Z,7.69
2022-09-23T06:21:55.988Z,7.73
2022-09-23T06:24:00.838Z,7.69
2022-09-23T06:26:04.390Z,7.73
2022-09-23T06:28:12.413Z,7.78
2022-09-23T06:30:17.050Z,7.87
2022-09-23T06:32:20.578Z,7.90
2022-09-23T06:34:23.102Z,7.98
2022-09-23T06:36:41.489Z,7.99
2022-09-23T06:38:49.174Z,8.06
2022-09-23T06:40:54.516Z,8.17
2022-09-23T06:43:00.732Z,8.08
2022-09-23T06:45:03.295Z,8.05
2022-09-23T06:47:05.995Z,8.09
2022-09-23T06:49:08.589Z,8.14
2022-09-23T06:51:18.881Z,8.15
2022-09-23T06:53:23.661Z,8.11
2022-09-23T06:55:27.967Z,8.15
2022-09-23T06:57:32.791Z,8.19
2022-09-23T06:59:35.621Z,8.26
2022-09-23T07:01:38.449Z,8.30
2022-09-23T07:03:41.219Z,8.33
2022-09-23T07:05:43.762Z,8.41
2022-09-23T07:07:46.338Z,8.40
2022-09-23T07:09:48.865Z,8.48
2022-09-23T07:11:51.456Z,8.55
2022-09-23T07:13:55.325Z,8.57
2022-09-23T07:16:00.712Z,8.59
2022-09-23T07:18:03.277Z,8.65
2022-09-23T07:20:06.456Z,8.74
2022-09-23T07:22:09.011Z,8.80
2022-09-23T07:24:11.581Z,8.88
2022-09-23T07:26:15.173Z,8.93
2022-09-23T07:28:17.826Z,8.98
2022-09-23T07:30:25.429Z,9.06
2022-09-23T07:32:32.182Z,9.05
2022-09-23T07:34:39.269Z,9.12
2022-09-23T07:36:41.955Z,9.17
2022-09-23T07:38:45.800Z,9.20
2022-09-23T07:40:49.213Z,9.21
2022-09-23T07:42:51.875Z,9.29
2022-09-23T07:44:55.386Z,9.32
2022-09-23T07:46:59.455Z,9.41
2022-09-23T07:49:04.405Z,9.46
2022-09-23T07:51:08.700Z,9.48
2022-09-23T07:53:11.244Z,9.55
2022-09-23T07:55:18.809Z,9.62
2022-09-23T07:57:24.003Z,9.70
2022-09-23T07:59:27.235Z,9.77
2022-09-23T08:01:32.593Z,9.84
2022-09-23T08:03:36.551Z,9.91
2022-09-23T08:05:39.095Z,9.97
2022-09-23T08:07:41.636Z,10.02
2022-09-23T08:09:45.320Z,10.06
2022-09-23T08:11:48.164Z,10.13
2022-09-23T08:13:50.742Z,10.18
2022-09-23T08:15:55.537Z,10.23
2022-09-23T08:17:59.802Z,10.27
2022-09-23T08:20:03.896Z,10.31
2022-09-23T08:22:06.730Z,10.35
2022-09-23T08:24:10.307Z,10.37
2022-09-23T08:26:20.263Z,10.40
2022-09-23T08:28:24.746Z,10.42
2022-09-23T08:30:27.273Z,10.45
2022-09-23T08:32:30.046Z,10.47
2022-09-23T08:34:32.552Z,10.35
2022-09-23T08:36:37.237Z,10.46
2022-09-23T08:38:39.812Z,10.50
2022-09-23T08:40:47.300Z,10.56
2022-09-23T08:42:50.322Z,10.62
2022-09-23T08:44:57.527Z,10.66
2022-09-23T08:47:11.768Z,10.67
2022-09-23T08:49:22.661Z,10.73
2022-09-23T08:51:37.117Z,10.75
2022-09-23T08:53:42.247Z,10.79
2022-09-23T08:55:49.479Z,10.85
2022-09-23T09:00:35.692Z,10.89
2022-09-23T09:02:38.282Z,10.91
2022-09-23T09:04:44.615Z,10.91
2022-09-23T09:06:54.049Z,11.00
2022-09-23T09:09:01.997Z,10.99
2022-09-23T09:11:06.048Z,10.99
2022-09-23T09:13:24.574Z,11.05
2022-09-23T09:15:29.442Z,11.05
2022-09-23T09:17:38.315Z,11.07
2022-09-23T09:19:53.569Z,11.10
2022-09-23T09:21:56.208Z,11.12
2022-09-23T09:24:00.688Z,11.13
2022-09-23T09:26:05.199Z,11.14
2022-09-23T09:28:16.292Z,11.17
2022-09-23T09:30:20.731Z,11.17
2022-09-23T09:32:37.808Z,11.18
2022-09-23T09:34:45.927Z,11.19
2022-09-23T09:36:55.320Z,11.21
2022-09-23T09:38:59.656Z,11.23
2022-09-23T09:41:14.963Z,11.29
2022-09-23T09:43:23.611Z,11.38
2022-09-23T09:45:38.675Z,11.49
2022-09-23T09:47:51.796Z,11.55
2022-09-23T09:50:00.712Z,11.61
2022-09-23T09:52:16.016Z,11.63
2022-09-23T09:54:24.638Z,11.64
2022-09-23T09:56:34.018Z,11.66
2022-09-23T09:58:45.930Z,11.69
2022-09-23T10:00:50.614Z,11.71
2022-09-23T10:02:53.892Z,11.73
2022-09-23T10:04:59.743Z,11.77
2022-09-23T10:07:08.025Z,11.81
2022-09-23T10:09:14.638Z,11.84
2022-09-23T10:11:19.057Z,11.87
2022-09-23T10:13:25.030Z,11.88
2022-09-23T10:15:31.231Z,11.89
2022-09-23T10:17:35.371Z,11.91
2022-09-23T10:19:44.754Z,11.94
2022-09-23T10:21:53.006Z,11.99
2022-09-23T10:24:00.822Z,12.02
2022-09-23T10:26:08.035Z,12.05
2022-09-23T10:28:45.426Z,12.07
2022-09-23T10:31:07.033Z,12.22
2022-09-23T10:33:27.826Z,12.23
2022-09-23T10:35:34.307Z,12.27
2022-09-23T10:37:39.642Z,12.27
2022-09-23T10:40:00.171Z,12.27
2022-09-23T10:42:23.789Z,12.27
2022-09-23T10:44:57.073Z,12.27
2022-09-23T10:47:06.262Z,12.33
2022-09-23T10:49:45.873Z,12.56
2022-09-23T10:52:01.816Z,12.63
2022-09-23T10:54:14.152Z,12.67
2022-09-23T10:56:31.185Z,12.70
2022-09-23T10:59:04.196Z,12.80
2022-09-23T11:01:23.784Z,12.82
2022-09-23T11:03:48.859Z,12.98
2022-09-23T11:06:04.720Z,13.06
2022-09-23T11:08:27.456Z,13.05
2022-09-23T11:10:52.040Z,13.04
2022-09-23T11:13:07.747Z,13.03
2022-09-23T11:15:23.183Z,13.05
2022-09-23T11:17:45.849Z,13.18
2022-09-23T11:20:06.511Z,13.33
2022-09-23T11:22:24.266Z,13.38
2022-09-23T11:25:02.295Z,13.39
2022-09-23T11:27:13.012Z,13.43
2022-09-23T11:29:42.402Z,13.45
2022-09-23T11:31:57.377Z,13.46
2022-09-23T11:34:20.252Z,13.47
2022-09-23T11:36:31.806Z,13.67
2022-09-23T11:38:38.329Z,13.75
2022-09-23T11:40:46.217Z,13.75
2022-09-23T11:42:58.059Z,13.81
2022-09-23T11:45:07.734Z,14.16
2022-09-23T11:47:15.170Z,14.04
2022-09-23T11:49:27.648Z,14.00
2022-09-23T11:51:33.851Z,14.01
2022-09-23T11:53:44.059Z,13.98
2022-09-23T11:55:57.767Z,14.01
2022-09-23T11:58:14.873Z,14.11
2022-09-23T12:00:24.208Z,14.12
2022-09-23T12:02:32.386Z,14.15
2022-09-23T12:04:52.003Z,14.19
2022-09-23T12:07:01.937Z,14.20
2022-09-23T12:09:14.599Z,14.22
2022-09-23T12:11:27.173Z,14.22
2022-09-23T12:13:40.592Z,14.24
2022-09-23T12:15:57.687Z,14.33
2022-09-23T12:18:23.392Z,14.40
2022-09-23T12:20:50.418Z,14.46
2022-09-23T12:23:10.725Z,14.53
2022-09-23T12:25:35.566Z,14.67
2022-09-23T12:27:44.752Z,14.86
2022-09-23T12:29:50.064Z,15.18
2022-09-23T12:31:53.512Z,15.49
2022-09-23T12:33:56.278Z,15.84
2022-09-23T12:36:06.237Z,16.06
2022-09-23T12:38:19.347Z,16.25
2022-09-23T12:40:28.348Z,16.37
2022-09-23T12:42:31.507Z,16.38
2022-09-23T12:44:40.538Z,16.43
2022-09-23T12:46:44.081Z,16.41
2022-09-23T12:49:01.186Z,16.41
2022-09-23T12:51:16.833Z,16.35
2022-09-23T12:53:56.330Z,16.39
2022-09-23T12:56:00.053Z,16.37
2022-09-23T12:58:02.575Z,16.33
2022-09-23T13:00:28.092Z,16.41
2022-09-23T13:02:40.161Z,16.44
2022-09-23T13:05:14.853Z,16.58
2022-09-23T13:07:22.826Z,16.64
2022-09-23T13:09:29.271Z,16.94
2022-09-23T13:11:34.035Z,17.49
2022-09-23T13:13:41.025Z,18.24
2022-09-23T13:15:43.668Z,18.92
2022-09-23T13:17:46.317Z,19.47
2022-09-23T13:20:00.541Z,19.95
2022-09-23T13:22:09.176Z,20.33
2022-09-23T13:24:21.805Z,20.65
2022-09-23T13:26:24.477Z,20.92
2022-09-23T13:28:37.098Z,21.17
2022-09-23T13:30:51.162Z,21.09
2022-09-23T13:33:03.734Z,20.95
2022-09-23T13:35:17.746Z,20.84
2022-09-23T13:37:23.052Z,20.66
2022-09-23T13:39:28.633Z,20.60
2022-09-23T13:41:31.184Z,20.57
2022-09-23T13:43:41.225Z,20.49
2022-09-23T13:45:44.475Z,20.33
2022-09-23T13:47:49.124Z,20.23
2022-09-23T13:49:51.802Z,20.24
2022-09-23T13:51:55.505Z,20.14
2022-09-23T13:54:00.232Z,20.06
2022-09-23T13:56:07.165Z,19.95
2022-09-23T13:58:18.462Z,19.90
2022-09-23T14:00:23.208Z,19.87
2022-09-23T14:02:28.314Z,19.83
2022-09-23T14:04:30.956Z,19.89
2022-09-23T14:06:42.197Z,19.82
2022-09-23T14:08:47.221Z,19.77
2022-09-23T14:10:53.654Z,19.71
2022-09-23T14:12:59.337Z,19.61
2022-09-23T14:15:01.913Z,19.56
2022-09-23T14:17:05.722Z,19.48
2022-09-23T14:19:11.465Z,19.56
2022-09-23T14:21:29.952Z,19.62
2022-09-23T14:23:33.021Z,19.65
2022-09-23T14:25:36.695Z,19.66
2022-09-23T14:27:39.767Z,19.70
2022-09-23T14:29:46.398Z,19.69
2022-09-23T14:31:56.748Z,19.71
2022-09-23T14:33:59.733Z,19.68
2022-09-23T14:36:08.750Z,19.64
2022-09-23T14:38:29.527Z,19.60
2022-09-23T14:40:33.941Z,19.49
2022-09-23T14:42:41.122Z,19.50
2022-09-23T14:44:50.484Z,19.40
2022-09-23T14:46:57.642Z,19.38
2022-09-23T14:49:07.894Z,19.29
2022-09-23T14:51:16.193Z,19.19
2022-09-23T14:53:41.278Z,19.10
2022-09-23T14:55:43.852Z,18.99
2022-09-23T14:57:46.763Z,18.91
2022-09-23T14:59:54.460Z,18.88
2022-09-23T15:01:57.224Z,18.82
2022-09-23T15:04:00.788Z,18.77
2022-09-23T15:06:09.029Z,18.70
2022-09-23T15:08:21.893Z,18.62
2022-09-23T15:10:28.840Z,18.59
2022-09-23T15:12:32.333Z,18.62
2022-09-23T15:14:39.754Z,18.71
2022-09-23T15:16:44.934Z,18.73
2022-09-23T15:18:55.130Z,18.73
2022-09-23T15:21:02.435Z,18.72
2022-09-23T15:23:04.987Z,18.69
2022-09-23T15:25:17.719Z,18.65
2022-09-23T15:27:30.891Z,18.58
2022-09-23T15:29:33.645Z,18.51
2022-09-23T15:31:37.316Z,18.44
2022-09-23T15:33:41.548Z,18.34
2022-09-23T15:35:48.613Z,18.26
2022-09-23T15:37:51.667Z,18.19
2022-09-23T15:39:54.313Z,18.12
2022-09-23T15:41:57.287Z,18.09
2022-09-23T15:44:06.037Z,18.03
2022-09-23T15:46:14.280Z,17.97
2022-09-23T15:48:19.321Z,17.92
2022-09-23T15:50:23.202Z,17.88
2022-09-23T15:52:26.509Z,17.83
2022-09-23T15:54:29.605Z,17.77
2022-09-23T15:56:32.239Z,17.71
2022-09-23T15:58:34.795Z,17.65
2022-09-23T16:00:37.886Z,17.59
2022-09-23T16:02:41.080Z,17.54
2022-09-23T16:04:47.159Z,17.47
2022-09-23T16:06:51.171Z,17.42
2022-09-23T16:08:54.171Z,17.37
2022-09-23T16:10:57.574Z,17.32
2022-09-23T16:13:02.256Z,17.26
2022-09-23T16:15:05.355Z,17.20
2022-09-23T16:17:10.450Z,17.15
2022-09-23T16:19:13.198Z,17.09
2022-09-23T16:21:18.919Z,17.04
2022-09-23T16:23:35.401Z,17.01
2022-09-23T16:25:38.407Z,16.95
2022-09-23T16:27:41.193Z,16.90
2022-09-23T16:29:43.709Z,16.85
2022-09-23T16:31:46.314Z,16.81
2022-09-23T16:33:51.249Z,16.75
2022-09-23T16:35:53.926Z,16.69
2022-09-23T16:37:57.106Z,16.62
2022-09-23T16:40:02.075Z,16.58
2022-09-23T16:42:04.891Z,16.54
2022-09-23T16:44:10.552Z,16.50
2022-09-23T16:46:14.885Z,16.46
2022-09-23T16:48:19.580Z,16.42
2022-09-23T16:50:23.714Z,16.40
2022-09-23T16:52:26.371Z,16.38
2022-09-23T16:54:28.987Z,16.33
2022-09-23T16:56:32.899Z,16.27
2022-09-23T16:58:35.444Z,16.21
2022-09-23T17:00:55.910Z,16.16
2022-09-23T17:03:16.261Z,16.09
2022-09-23T17:05:19.331Z,16.06
2022-09-23T17:07:22.082Z,16.02
2022-09-23T17:09:26.434Z,15.98
2022-09-23T17:11:33.452Z,15.94
2022-09-23T17:13:40.432Z,15.91
2022-09-23T17:15:44.013Z,15.88
2022-09-23T17:17:46.570Z,15.87
2022-09-23T17:19:49.126Z,15.85
2022-09-23T17:21:51.653Z,15.81
2022-09-23T17:23:57.716Z,15.77
2022-09-23T17:26:00.617Z,15.74
2022-09-23T17:28:03.250Z,15.77
2022-09-23T17:30:08.599Z,15.73
2022-09-23T17:32:11.131Z,15.73
2022-09-23T17:34:13.677Z,15.69
2022-09-23T17:36:16.795Z,15.67
2022-09-23T17:38:19.449Z,15.63
2022-09-23T17:40:22.057Z,15.56
2022-09-23T17:42:24.688Z,15.52
2022-09-23T17:44:27.427Z,15.48
2022-09-23T17:46:32.087Z,15.47
2022-09-23T17:48:37.069Z,15.43
2022-09-23T17:50:39.625Z,15.39
2022-09-23T17:52:42.163Z,15.34
2022-09-23T17:54:46.960Z,15.27
2022-09-23T17:56:49.486Z,15.23
2022-09-23T17:58:53.337Z,15.21
2022-09-23T18:00:56.850Z,15.18
2022-09-23T18:03:00.828Z,15.15
2022-09-23T18:05:03.374Z,15.11
2022-09-23T18:07:05.915Z,15.08
2022-09-23T18:09:09.273Z,15.06
2022-09-23T18:11:17.011Z,14.98
2022-09-23T18:13:19.560Z,14.90
2022-09-23T18:15:22.094Z,14.88
2022-09-23T18:17:24.606Z,14.84
2022-09-23T18:19:28.500Z,14.81
2022-09-23T18:21:32.988Z,14.82
2022-09-23T18:23:37.129Z,14.77
2022-09-23T18:25:40.223Z,14.86
2022-09-23T18:27:42.827Z,14.89
2022-09-23T18:29:45.377Z,14.78
2022-09-23T18:31:50.959Z,14.71
2022-09-23T18:33:55.083Z,14.62
2022-09-23T18:36:01.487Z,14.59
2022-09-23T18:38:04.006Z,14.56
2022-09-23T18:40:12.540Z,14.54
2022-09-23T18:42:16.996Z,14.54
2022-09-23T18:44:19.974Z,14.51
2022-09-23T18:46:24.109Z,14.48
2022-09-23T18:48:44.691Z,14.44
2022-09-23T18:50:48.805Z,14.42
2022-09-23T18:52:53.115Z,14.44
2022-09-23T18:54:55.640Z,14.42
2022-09-23T18:56:59.165Z,14.40
2022-09-23T18:59:03.995Z,14.39
2022-09-23T19:01:08.936Z,14.38
2022-09-23T19:03:11.601Z,14.36
2022-09-23T19:05:14.696Z,14.37
2022-09-23T19:07:17.200Z,14.37
2022-09-23T19:09:21.241Z,14.35
2022-09-23T19:11:24.949Z,14.34
2022-09-23T19:13:27.530Z,14.33
2022-09-23T19:15:30.151Z,14.31
2022-09-23T19:17:34.009Z,14.28
2022-09-23T19:19:36.741Z,14.26
2022-09-23T19:21:39.287Z,14.25
2022-09-23T19:23:47.477Z,14.24
2022-09-23T19:25:51.477Z,14.23
2022-09-23T19:27:53.998Z,14.22
2022-09-23T19:29:57.724Z,14.22
2022-09-23T19:32:00.325Z,14.22
2022-09-23T19:34:06.010Z,14.20
2022-09-23T19:36:09.387Z,14.17
2022-09-23T19:38:11.907Z,14.15
2022-09-23T19:40:14.941Z,14.13
2022-09-23T19:42:18.820Z,14.12
2022-09-23T19:44:21.388Z,14.10
2022-09-23T19:46:24.141Z,14.07
2022-09-23T19:48:26.771Z,14.06
2022-09-23T19:50:34.493Z,14.05
2022-09-23T19:52:37.818Z,14.02
2022-09-23T19:54:40.365Z,14.00
2022-09-23T19:56:42.917Z,13.99
2022-09-23T19:58:48.466Z,13.99
2022-09-23T20:00:50.995Z,13.97
2022-09-23T20:02:53.589Z,13.95
2022-09-23T20:04:56.145Z,13.95
2022-09-23T20:06:58.731Z,13.94
2022-09-23T20:09:01.751Z,13.93
2022-09-23T20:11:10.231Z,13.92
2022-09-23T20:13:14.560Z,13.90
2022-09-23T20:15:18.776Z,13.86
2022-09-23T20:17:21.328Z,13.83
2022-09-23T20:19:24.032Z,13.81
2022-09-23T20:21:28.125Z,13.78
2022-09-23T20:23:30.776Z,13.78
2022-09-23T20:25:54.090Z,13.76
2022-09-23T20:27:55.664Z,13.75
2022-09-23T20:29:58.945Z,13.72
2022-09-23T20:32:03.748Z,13.70
2022-09-23T20:34:07.035Z,13.70
2022-09-23T20:36:10.293Z,13.68
2022-09-23T20:38:12.936Z,13.67
2022-09-23T20:40:15.761Z,13.65
2022-09-23T20:42:19.966Z,13.65
2022-09-23T20:44:25.091Z,13.63
2022-09-23T20:46:28.447Z,13.58
2022-09-23T20:48:33.804Z,13.56
2022-09-23T20:50:37.165Z,13.54
2022-09-23T20:52:39.671Z,13.54
2022-09-23T20:54:42.882Z,13.52
2022-09-23T20:56:45.443Z,13.54
2022-09-23T20:58:48.648Z,13.50
2022-09-23T21:00:51.287Z,13.47
2022-09-23T21:02:53.940Z,13.43
2022-09-23T21:04:57.853Z,13.42
2022-09-23T21:07:01.001Z,13.39
2022-09-23T21:09:04.281Z,13.34
2022-09-23T21:11:10.409Z,13.31
2022-09-23T21:13:13.153Z,13.28
2022-09-23T21:15:15.916Z,13.27
2022-09-23T21:17:18.521Z,13.26
2022-09-23T21:19:21.302Z,13.22
2022-09-23T21:21:25.468Z,13.22
2022-09-23T21:23:29.801Z,13.19
2022-09-23T21:25:32.634Z,13.17
2022-09-23T21:27:37.106Z,13.16
2022-09-23T21:29:40.103Z,13.15
2022-09-23T21:31:42.709Z,13.16
2022-09-23T21:33:45.297Z,13.15
2022-09-23T21:35:52.451Z,13.14
2022-09-23T21:37:58.381Z,13.12
2022-09-23T21:40:18.853Z,13.15
2022-09-23T21:42:21.443Z,13.15
2022-09-23T21:44:23.981Z,13.13
2022-09-23T21:46:28.216Z,13.00
2022-09-23T21:48:32.666Z,12.98
2022-09-23T21:50:37.196Z,12.93
2022-09-23T21:52:40.073Z,12.91
2022-09-23T21:54:43.963Z,12.92
2022-09-23T21:56:46.855Z,12.93
2022-09-23T21:58:50.185Z,12.91
2022-09-23T22:00:52.810Z,12.88
2022-09-23T22:02:55.492Z,12.87
2022-09-23T22:04:58.069Z,12.86
2022-09-23T22:07:01.266Z,12.85
2022-09-23T22:09:08.401Z,12.85
2022-09-23T22:11:35.264Z,12.84
2022-09-23T22:13:37.807Z,12.81
2022-09-23T22:15:42.569Z,12.81
2022-09-23T22:17:46.519Z,12.77
2022-09-23T22:19:49.250Z,12.77
2022-09-23T22:21:54.895Z,12.77
2022-09-23T22:24:01.041Z,12.74
2022-09-23T22:26:04.812Z,12.75
2022-09-23T22:28:29.375Z,12.72
2022-09-23T22:30:49.353Z,12.72
2022-09-23T22:32:55.193Z,12.71
2022-09-23T22:34:58.159Z,12.71
2022-09-23T22:37:01.190Z,12.70
2022-09-23T22:39:05.014Z,12.67
2022-09-23T22:41:07.599Z,12.62
2022-09-23T22:43:11.943Z,12.61
2022-09-23T22:45:14.687Z,12.65
2022-09-23T22:47:18.592Z,12.62
2022-09-23T22:49:21.178Z,12.64
2022-09-23T22:51:23.890Z,12.64
2022-09-23T22:53:26.605Z,12.66
2022-09-23T22:55:29.169Z,12.66
2022-09-23T22:57:32.180Z,12.61
2022-09-23T22:59:37.229Z,12.59
2022-09-23T23:01:40.492Z,12.58
2022-09-23T23:03:43.137Z,12.56
2022-09-23T23:05:47.090Z,12.54
2022-09-23T23:07:49.815Z,12.52
2022-09-23T23:09:53.229Z,12.51
2022-09-23T23:11:55.780Z,12.53
2022-09-23T23:14:01.283Z,12.51
2022-09-23T23:16:07.100Z,12.47
2022-09-23T23:18:09.797Z,12.44
2022-09-23T23:20:12.400Z,12.42
2022-09-23T23:22:14.914Z,12.42
2022-09-23T23:24:20.569Z,12.40
2022-09-23T23:26:25.252Z,12.39
2022-09-23T23:28:27.806Z,12.40
2022-09-23T23:30:34.792Z,12.40
2022-09-23T23:32:38.744Z,12.37
2022-09-23T23:34:41.252Z,12.35
2022-09-23T23:36:44.535Z,12.33
2022-09-23T23:38:51.536Z,12.31
2022-09-23T23:40:55.486Z,12.30
2022-09-23T23:43:00.061Z,12.30
2022-09-23T23:45:02.629Z,12.28
2022-09-23T23:47:05.427Z,12.29
2022-09-23T23:49:09.356Z,12.28
2022-09-23T23:51:12.604Z,12.31
2022-09-23T23:53:15.181Z,12.32
2022-09-23T23:55:17.875Z,12.31
2022-09-23T23:57:20.408Z,12.30
2022-09-23T23:59:23.001Z,12.33
